Time;durP1;ratioP1;P1;durP2;ratioP2;P2;SDS_P1;SDS_P2;PMS_P1;PMS_P2;Temp;Humidity;BMP_temperature;BMP_pressure;BME280_temperature;BME280_humidity;BME280_pressure;Samples;Min_cycle;Max_cycle;Signal;HPM_P1;HPM_P2
2022/03/14 00:01:49;;;;;;;19.20;11.80;;;9.30;95.40;;;;;;4844467;29;20049;-86
2022/03/14 00:04:15;;;;;;;19.25;12.25;;;9.30;96.10;;;;;;4861859;29;20121;-86
2022/03/14 00:06:43;;;;;;;21.58;12.68;;;9.20;96.30;;;;;;4845272;29;20136;-86
2022/03/14 00:09:09;;;;;;;20.08;12.38;;;9.20;96.80;;;;;;4844965;29;20053;-86
2022/03/14 00:11:38;;;;;;;20.92;12.38;;;9.20;97.20;;;;;;4862138;29;20049;-86
2022/03/14 00:14:08;;;;;;;23.33;13.20;;;9.10;97.60;;;;;;4844518;29;20057;-86
2022/03/14 00:16:40;;;;;;;20.98;12.32;;;9.70;98.30;;;;;;4845366;29;20410;-86
2022/03/14 00:19:07;;;;;;;19.70;12.13;;;9.10;98.70;;;;;;4844798;29;20049;-86
2022/03/14 00:21:35;;;;;;;20.95;12.65;;;9.00;99.30;;;;;;4844270;29;20089;-86
2022/03/14 00:24:01;;;;;;;18.90;11.73;;;8.90;99.90;;;;;;4844965;29;20046;-86
2022/03/14 00:26:27;;;;;;;20.05;11.10;;;8.80;99.90;;;;;;4844325;29;20520;-86
2022/03/14 00:28:53;;;;;;;20.15;11.13;;;8.70;99.90;;;;;;4843959;29;20050;-86
2022/03/14 00:31:20;;;;;;;27.10;10.88;;;8.60;99.90;;;;;;4844557;29;20049;-86
2022/03/14 00:33:46;;;;;;;17.58;9.73;;;8.50;99.90;;;;;;4844619;29;20057;-86
2022/03/14 00:36:12;;;;;;;16.63;9.68;;;8.40;99.90;;;;;;4843811;29;20434;-86
2022/03/14 00:38:39;;;;;;;16.67;9.05;;;8.40;99.90;;;;;;4844564;29;20061;-86
2022/03/14 00:41:06;;;;;;;18.27;9.77;;;8.50;99.90;;;;;;4844142;29;20489;-86
2022/03/14 00:43:34;;;;;;;16.48;8.38;;;8.50;99.90;;;;;;4844421;29;20049;-86
2022/03/14 00:46:00;;;;;;;15.80;8.57;;;8.70;99.90;;;;;;4844783;29;20049;-86
2022/03/14 00:48:26;;;;;;;16.52;8.57;;;8.70;99.90;;;;;;4859346;29;20144;-86
2022/03/14 00:50:52;;;;;;;14.50;7.80;;;8.80;99.90;;;;;;4843659;29;20057;-86
2022/03/14 00:53:18;;;;;;;14.85;7.65;;;8.80;99.90;;;;;;4844382;29;20053;-86
2022/03/14 00:55:43;;;;;;;13.65;7.00;;;8.80;99.90;;;;;;4860834;29;20132;-86
2022/03/14 00:58:09;;;;;;;13.93;7.72;;;8.90;99.90;;;;;;4860173;29;20113;-86
2022/03/14 01:00:35;;;;;;;13.13;7.05;;;8.90;99.90;;;;;;4844250;29;20132;-86
2022/03/14 01:03:01;;;;;;;13.15;6.65;;;8.90;99.90;;;;;;4843287;29;20045;-86
2022/03/14 01:05:28;;;;;;;13.25;6.63;;;8.90;99.90;;;;;;4843951;29;20136;-86
2022/03/14 01:07:54;;;;;;;12.45;6.50;;;8.90;99.90;;;;;;4844384;29;20126;-86
2022/03/14 01:10:20;;;;;;;13.85;6.57;;;9.00;99.90;;;;;;4842922;29;20053;-86
2022/03/14 01:12:46;;;;;;;13.57;6.72;;;9.00;99.90;;;;;;4845239;29;20065;-86
2022/03/14 01:15:12;;;;;;;14.15;7.22;;;9.00;99.90;;;;;;4862052;29;20512;-86
2022/03/14 01:17:39;;;;;;;13.02;6.65;;;8.90;99.90;;;;;;4861769;29;20053;-85
2022/03/14 01:20:05;;;;;;;15.82;7.35;;;8.90;99.90;;;;;;4862103;29;20053;-86
2022/03/14 01:22:31;;;;;;;13.52;6.80;;;8.80;99.90;;;;;;4879067;29;20082;-86
2022/03/14 01:24:57;;;;;;;13.75;7.20;;;8.80;99.90;;;;;;4861836;29;20060;-86
2022/03/14 01:27:22;;;;;;;14.98;7.28;;;8.80;99.90;;;;;;4861977;29;20064;-86
2022/03/14 01:29:48;;;;;;;13.98;6.70;;;8.80;99.90;;;;;;4879314;29;20393;-86
2022/03/14 01:32:14;;;;;;;16.35;7.40;;;8.80;99.90;;;;;;4861390;29;20049;-86
2022/03/14 01:34:40;;;;;;;13.90;6.93;;;8.80;99.90;;;;;;4862569;29;20397;-86
2022/03/14 01:37:06;;;;;;;13.95;6.95;;;8.80;99.90;;;;;;4879004;29;20041;-86
2022/03/14 01:39:31;;;;;;;14.05;6.72;;;8.80;99.90;;;;;;4862093;29;20557;-86
2022/03/14 01:41:57;;;;;;;14.63;7.28;;;8.80;99.90;;;;;;4862524;29;20084;-86
2022/03/14 01:44:23;;;;;;;13.90;6.72;;;8.80;99.90;;;;;;4862127;29;20814;-86
2022/03/14 01:46:49;;;;;;;13.23;6.85;;;8.80;99.90;;;;;;4861703;29;20049;-86
2022/03/14 01:49:15;;;;;;;14.40;6.93;;;8.80;99.90;;;;;;4878980;29;20495;-86
2022/03/14 01:51:41;;;;;;;13.82;7.10;;;8.80;99.90;;;;;;4862331;29;20063;-86
2022/03/14 01:54:09;;;;;;;15.05;7.03;;;8.70;99.90;;;;;;4862809;29;20049;-86
2022/03/14 01:56:35;;;;;;;13.77;6.55;;;8.70;99.90;;;;;;4879129;29;20045;-86
2022/03/14 01:59:01;;;;;;;13.38;6.60;;;8.70;99.90;;;;;;4862310;29;20375;-86
2022/03/14 02:01:27;;;;;;;12.77;6.10;;;8.70;99.90;;;;;;4861149;29;20549;-86
2022/03/14 02:03:53;;;;;;;11.82;5.78;;;8.70;99.90;;;;;;4864338;29;20512;-86
2022/03/14 02:06:19;;;;;;;12.15;5.57;;;8.60;99.90;;;;;;4878110;29;20119;-86
2022/03/14 02:08:45;;;;;;;12.18;6.07;;;8.60;99.90;;;;;;4861877;29;20059;-86
2022/03/14 02:11:11;;;;;;;11.75;5.55;;;8.60;99.90;;;;;;4861893;29;20037;-86
2022/03/14 02:13:37;;;;;;;10.80;5.20;;;8.60;99.90;;;;;;4861505;29;20514;-86
2022/03/14 02:16:02;;;;;;;10.73;4.80;;;8.60;99.90;;;;;;4862201;29;20053;-86
2022/03/14 02:18:28;;;;;;;9.63;4.78;;;8.60;99.90;;;;;;4878894;29;20398;-86
2022/03/14 02:20:54;;;;;;;11.23;4.88;;;8.60;99.90;;;;;;4861728;29;20060;-86
2022/03/14 02:23:20;;;;;;;11.93;4.72;;;8.60;99.90;;;;;;4878512;29;20502;-86
2022/03/14 02:25:53;;;;;;;9.52;4.40;;;8.60;99.90;;;;;;4880693;29;20390;-86
2022/03/14 02:28:21;;;;;;;10.85;4.18;;;8.70;99.90;;;;;;4864585;29;20064;-86
2022/03/14 02:30:47;;;;;;;9.85;4.38;;;8.80;99.90;;;;;;4881124;29;20504;-86
2022/03/14 02:33:13;;;;;;;12.25;4.50;;;8.80;99.90;;;;;;4881995;29;20049;-86
2022/03/14 02:35:43;;;;;;;12.00;4.18;;;8.80;99.90;;;;;;4881351;29;20045;-86
2022/03/14 02:38:14;;;;;;;9.75;4.20;;;8.80;99.90;;;;;;4881497;29;20045;-86
2022/03/14 02:40:46;;;;;;;14.02;4.78;;;8.80;99.90;;;;;;4865381;29;20041;-86
2022/03/14 02:43:15;;;;;;;9.60;4.22;;;8.90;99.90;;;;;;4864329;29;20060;-86
2022/03/14 02:45:47;;;;;;;10.25;4.18;;;8.90;99.90;;;;;;4888041;29;20140;-86
2022/03/14 02:48:13;;;;;;;11.52;4.68;;;8.90;99.90;;;;;;4890993;29;20052;-86
2022/03/14 02:50:42;;;;;;;11.02;4.60;;;9.00;99.90;;;;;;4864712;29;20045;-85
2022/03/14 02:53:13;;;;;;;10.10;4.40;;;9.00;99.90;;;;;;4865522;29;20087;-85
2022/03/14 02:55:40;;;;;;;11.00;4.35;;;9.10;99.90;;;;;;4864414;29;20538;-86
2022/03/14 02:58:06;;;;;;;8.98;3.65;;;9.10;99.90;;;;;;4864545;29;20053;-86
2022/03/14 03:00:35;;;;;;;9.27;3.95;;;9.20;99.90;;;;;;4864973;29;20538;-86
2022/03/14 03:03:05;;;;;;;10.00;3.50;;;9.20;99.90;;;;;;4880844;29;20060;-86
2022/03/14 03:05:32;;;;;;;9.00;3.60;;;9.30;99.90;;;;;;4864284;29;20049;-86
2022/03/14 03:08:00;;;;;;;10.65;3.33;;;9.30;99.90;;;;;;4864598;29;20049;-86
2022/03/14 03:10:27;;;;;;;9.30;3.33;;;9.40;99.90;;;;;;4863956;29;20094;-86
2022/03/14 03:12:53;;;;;;;8.25;3.33;;;9.30;99.90;;;;;;4864205;29;20519;-86
2022/03/14 03:15:19;;;;;;;8.48;3.40;;;9.30;99.90;;;;;;4881268;29;20076;-86
2022/03/14 03:17:45;;;;;;;8.98;3.58;;;9.30;99.90;;;;;;4863789;29;20049;-86
2022/03/14 03:20:11;;;;;;;8.35;3.22;;;9.30;99.90;;;;;;4864218;29;20393;-86
2022/03/14 03:22:38;;;;;;;8.45;2.90;;;9.30;99.90;;;;;;4864032;29;20065;-86
2022/03/14 03:25:08;;;;;;;8.85;3.47;;;9.30;99.90;;;;;;4880467;29;20057;-86
2022/03/14 03:27:34;;;;;;;8.48;3.25;;;9.30;99.90;;;;;;4864644;29;20096;-86
2022/03/14 03:30:00;;;;;;;7.85;3.05;;;9.30;99.90;;;;;;4864725;29;20084;-86
2022/03/14 03:32:26;;;;;;;8.55;3.42;;;9.20;99.90;;;;;;4880333;29;20052;-86
2022/03/14 03:34:52;;;;;;;9.10;3.30;;;9.20;99.90;;;;;;4880777;29;20045;-85
2022/03/14 03:37:18;;;;;;;9.05;3.40;;;9.20;99.90;;;;;;4862863;29;20904;-86
2022/03/14 03:39:44;;;;;;;8.90;3.30;;;9.20;99.90;;;;;;4863797;29;20049;-86
2022/03/14 03:42:10;;;;;;;8.82;3.30;;;9.20;99.90;;;;;;4864147;29;20056;-86
2022/03/14 03:44:35;;;;;;;8.02;3.10;;;9.10;99.90;;;;;;4865304;29;20045;-86
2022/03/14 03:47:02;;;;;;;9.10;3.20;;;9.00;99.90;;;;;;4863777;29;20401;-86
2022/03/14 03:49:28;;;;;;;8.43;3.20;;;9.00;99.90;;;;;;4864195;29;20076;-86
2022/03/14 03:51:54;;;;;;;8.77;3.33;;;9.00;99.90;;;;;;4863066;29;20521;-85
2022/03/14 03:54:21;;;;;;;10.73;3.80;;;8.90;99.90;;;;;;4882091;29;20482;-85
2022/03/14 03:56:47;;;;;;;9.48;4.18;;;8.90;99.90;;;;;;4863925;29;20097;-86
2022/03/14 03:59:13;;;;;;;10.25;4.32;;;8.90;99.90;;;;;;4878305;29;20048;-86
2022/03/14 04:01:39;;;;;;;9.60;4.15;;;9.00;99.90;;;;;;4863717;29;20053;-86
2022/03/14 04:04:04;;;;;;;9.02;3.95;;;8.90;99.90;;;;;;4880165;29;20053;-86
2022/03/14 04:06:30;;;;;;;9.38;4.18;;;8.90;99.90;;;;;;4862740;29;20056;-85
2022/03/14 04:09:00;;;;;;;9.45;3.90;;;8.90;99.90;;;;;;4880208;29;20103;-86
2022/03/14 04:11:27;;;;;;;9.23;3.80;;;8.90;99.90;;;;;;4863233;29;20048;-86
2022/03/14 04:13:57;;;;;;;9.20;3.70;;;8.90;99.90;;;;;;4863081;29;20097;-86
2022/03/14 04:16:24;;;;;;;9.85;3.83;;;8.90;99.90;;;;;;4863405;29;20510;-86
2022/03/14 04:18:49;;;;;;;9.40;3.90;;;8.90;99.90;;;;;;4879929;29;20059;-86
2022/03/14 04:21:16;;;;;;;9.13;4.00;;;8.90;99.90;;;;;;4878907;29;20135;-86
2022/03/14 04:23:42;;;;;;;9.75;4.00;;;8.90;99.90;;;;;;4863440;29;20069;-86
2022/03/14 04:26:09;;;;;;;9.05;3.80;;;8.90;99.90;;;;;;4863084;29;20056;-86
2022/03/14 04:28:36;;;;;;;8.32;3.58;;;8.90;99.90;;;;;;4862302;29;20112;-86
2022/03/14 04:31:06;;;;;;;8.75;3.60;;;8.90;99.90;;;;;;4879880;29;20077;-86
2022/03/14 04:33:32;;;;;;;9.77;3.83;;;8.90;99.90;;;;;;4863178;29;20136;-86
2022/03/14 04:35:58;;;;;;;9.05;3.80;;;9.00;99.90;;;;;;4879033;29;20053;-86
2022/03/14 04:38:28;;;;;;;9.23;3.92;;;9.00;99.90;;;;;;4862434;29;20501;-86
2022/03/14 04:40:55;;;;;;;8.98;4.03;;;9.00;99.90;;;;;;4863131;29;20049;-86
2022/03/14 04:43:21;;;;;;;9.27;4.13;;;9.10;99.90;;;;;;4862199;29;20048;-86
2022/03/14 04:45:48;;;;;;;9.50;3.90;;;9.10;99.90;;;;;;4862767;29;20481;-86
2022/03/14 04:48:14;;;;;;;10.68;3.80;;;9.10;99.90;;;;;;4861972;29;20064;-86
2022/03/14 04:50:41;;;;;;;9.70;4.10;;;9.10;99.90;;;;;;4862847;29;20056;-86
2022/03/14 04:53:07;;;;;;;10.68;4.35;;;9.00;99.90;;;;;;4862718;29;20053;-86
2022/03/14 04:55:34;;;;;;;9.68;4.30;;;8.90;99.90;;;;;;4862351;29;20420;-86
2022/03/14 04:58:01;;;;;;;10.13;4.57;;;8.90;99.90;;;;;;4878248;29;20057;-86
2022/03/14 05:00:29;;;;;;;9.57;4.25;;;8.80;99.90;;;;;;4860120;29;22897;-86
2022/03/14 05:03:03;;;;;;;10.20;4.72;;;8.80;99.90;;;;;;4860215;29;20513;-86
2022/03/14 05:05:29;;;;;;;9.48;4.18;;;8.70;99.90;;;;;;4860331;29;20042;-86
2022/03/14 05:07:55;;;;;;;10.02;4.63;;;8.70;99.90;;;;;;4860639;29;20110;-86
2022/03/14 05:10:21;;;;;;;10.73;4.55;;;8.60;99.90;;;;;;4842754;29;20045;-86
2022/03/14 05:12:46;;;;;;;11.13;4.93;;;8.60;99.90;;;;;;4844210;29;20118;-86
2022/03/14 05:15:17;;;;;;;10.52;5.10;;;8.60;99.90;;;;;;4860533;29;20565;-87
2022/03/14 05:17:43;;;;;;;11.50;5.05;;;8.50;99.90;;;;;;4843509;29;20145;-86
2022/03/14 05:20:09;;;;;;;10.98;4.95;;;8.50;99.90;;;;;;4843717;29;20045;-86
2022/03/14 05:22:48;;;;;;;10.63;5.15;;;8.50;99.90;;;;;;4860575;29;20104;-86
2022/03/14 05:25:16;;;;;;;10.82;4.93;;;8.40;99.90;;;;;;4843009;29;20085;-86
2022/03/14 05:27:41;;;;;;;11.93;5.30;;;8.40;99.90;;;;;;4843777;29;20045;-86
2022/03/14 05:30:08;;;;;;;10.15;4.57;;;8.40;99.90;;;;;;4843389;29;20052;-86
2022/03/14 05:32:35;;;;;;;10.68;5.07;;;8.40;99.90;;;;;;4859809;29;20045;-86
2022/03/14 05:35:01;;;;;;;10.30;4.75;;;8.40;99.90;;;;;;4860580;29;20045;-86
2022/03/14 05:37:26;;;;;;;11.25;5.13;;;8.40;99.90;;;;;;4844268;29;20106;-86
2022/03/14 05:39:52;;;;;;;9.77;4.43;;;8.40;99.90;;;;;;4843789;29;20136;-86
2022/03/14 05:42:18;;;;;;;11.18;4.70;;;8.40;99.90;;;;;;4859960;29;20049;-86
2022/03/14 05:44:43;;;;;;;10.73;4.70;;;8.40;99.90;;;;;;4843204;29;20202;-86
2022/03/14 05:47:09;;;;;;;10.48;4.82;;;8.40;99.90;;;;;;4854135;29;20105;-86
2022/03/14 05:49:35;;;;;;;10.63;4.70;;;8.40;99.90;;;;;;4876498;29;20453;-86
2022/03/14 05:52:01;;;;;;;11.35;4.82;;;8.30;99.90;;;;;;4843113;29;20049;-86
2022/03/14 05:54:26;;;;;;;11.00;4.72;;;8.30;99.90;;;;;;4843612;29;20049;-86
2022/03/14 05:56:54;;;;;;;11.57;4.72;;;8.30;99.90;;;;;;4860378;29;20056;-86
2022/03/14 05:59:19;;;;;;;12.25;5.22;;;8.30;99.90;;;;;;4843006;29;20049;-87
2022/03/14 06:01:50;;;;;;;11.43;5.07;;;8.30;99.90;;;;;;4863803;29;20049;-87
2022/03/14 06:04:16;;;;;;;11.80;5.40;;;8.30;99.90;;;;;;4847020;29;20105;-87
2022/03/14 06:06:42;;;;;;;10.80;4.60;;;8.20;99.90;;;;;;4863733;29;20085;-87
2022/03/14 06:09:08;;;;;;;11.05;4.70;;;8.30;99.90;;;;;;4863669;29;20077;-87
2022/03/14 06:11:34;;;;;;;11.15;4.90;;;8.20;99.90;;;;;;4847181;29;20136;-86
2022/03/14 06:14:00;;;;;;;19.15;5.28;;;8.20;99.90;;;;;;4846181;29;20061;-87
2022/03/14 06:16:25;;;;;;;12.00;5.25;;;8.20;99.90;;;;;;4846898;29;20045;-87
2022/03/14 06:18:51;;;;;;;14.32;5.30;;;8.20;99.90;;;;;;4847113;29;20056;-87
2022/03/14 06:21:17;;;;;;;15.15;5.88;;;8.20;99.90;;;;;;4846284;29;20053;-87
2022/03/14 06:23:43;;;;;;;12.50;5.10;;;8.20;99.90;;;;;;4846690;29;20053;-86
2022/03/14 06:26:09;;;;;;;16.02;5.57;;;8.20;99.90;;;;;;4846409;29;20050;-87
2022/03/14 06:28:34;;;;;;;13.10;5.53;;;8.10;99.90;;;;;;4846195;29;20060;-87
2022/03/14 06:31:00;;;;;;;10.68;5.00;;;8.20;99.90;;;;;;4846930;29;20410;-87
2022/03/14 06:33:26;;;;;;;12.40;5.05;;;8.20;99.90;;;;;;4863229;29;20048;-87
2022/03/14 06:35:51;;;;;;;13.02;5.72;;;8.10;99.90;;;;;;4846260;29;20497;-87
2022/03/14 06:38:17;;;;;;;11.23;5.45;;;8.20;99.90;;;;;;4863151;29;20057;-86
2022/03/14 06:40:43;;;;;;;12.80;5.60;;;8.20;99.90;;;;;;4845880;29;20569;-86
2022/03/14 06:43:11;;;;;;;12.68;6.05;;;8.20;99.90;;;;;;4846392;29;20089;-86
2022/03/14 06:45:39;;;;;;;14.13;6.32;;;8.20;99.90;;;;;;4846579;29;20053;-86
2022/03/14 06:48:06;;;;;;;16.15;6.18;;;8.10;99.90;;;;;;4862495;29;20121;-86
2022/03/14 06:50:34;;;;;;;12.43;5.85;;;8.20;99.90;;;;;;4846597;29;20132;-86
2022/03/14 06:52:59;;;;;;;13.80;6.43;;;8.10;99.90;;;;;;4863047;29;20409;-86
2022/03/14 06:55:26;;;;;;;14.00;6.45;;;8.10;99.90;;;;;;4862358;29;20116;-87
2022/03/14 06:57:59;;;;;;;14.38;6.78;;;8.20;99.90;;;;;;4878701;29;20045;-91
2022/03/14 07:00:27;;;;;;;13.68;6.80;;;8.80;99.90;;;;;;4865156;29;20053;-95
2022/03/14 07:02:53;;;;;;;16.80;6.95;;;8.10;99.90;;;;;;4865182;29;20060;-93
2022/03/14 07:05:24;;;;;;;17.05;7.00;;;8.10;99.90;;;;;;4881159;29;20128;-93
2022/03/14 07:07:53;;;;;;;15.43;6.80;;;8.20;99.90;;;;;;4882202;29;20053;-93
2022/03/14 07:10:36;;;;;;;;;;;;;;;;;;;;;
2022/03/14 07:13:20;;;;;;;14.35;6.80;;;7.80;99.90;;;;;;4870791;29;20053;-95
2022/03/14 07:15:48;;;;;;;13.73;6.75;;;8.10;99.90;;;;;;4867230;29;20116;-95
2022/03/14 07:18:23;;;;;;;14.75;7.38;;;8.10;99.90;;;;;;4882102;29;20041;-94
2022/03/14 07:21:04;;;;;;;14.27;7.00;;;8.60;99.90;;;;;;4865321;29;20049;-94
2022/03/14 07:23:41;;;;;;;15.82;7.50;;;9.50;99.90;;;;;;4864097;29;20061;-92
2022/03/14 07:26:25;;;;;;;15.15;7.65;;;8.00;99.90;;;;;;4864350;29;20494;-95
2022/03/14 07:29:03;;;;;;;16.40;7.80;;;8.20;99.90;;;;;;4895454;29;20033;-96
2022/03/14 07:34:40;;;;;;;15.50;7.95;;;8.20;99.90;;;;;;4918949;29;20139;-93
2022/03/14 07:37:05;;;;;;;15.90;7.53;;;9.60;99.90;;;;;;4907366;29;20115;-94
2022/03/14 07:39:37;;;;;;;18.58;8.25;;;8.20;99.90;;;;;;4920296;29;20485;-94
2022/03/14 07:42:03;;;;;;;15.27;7.95;;;8.50;99.90;;;;;;4918740;29;20044;-92
2022/03/14 07:44:29;;;;;;;15.48;7.70;;;8.20;99.90;;;;;;4918851;29;20051;-93
2022/03/14 07:47:10;;;;;;;16.08;7.82;;;8.70;99.90;;;;;;4912075;29;20048;-93
2022/03/14 07:49:52;;;;;;;16.00;7.93;;;8.30;99.90;;;;;;4918096;29;20067;-91
2022/03/14 07:52:21;;;;;;;15.65;8.18;;;8.20;99.90;;;;;;4917655;29;20044;-91
2022/03/14 07:54:46;;;;;;;19.95;8.32;;;9.10;99.90;;;;;;4901627;29;20048;-89
2022/03/14 07:57:15;;;;;;;15.73;8.25;;;8.80;99.90;;;;;;4917247;29;20408;-89
2022/03/14 07:59:41;;;;;;;18.55;8.95;;;8.10;99.90;;;;;;4900771;29;20051;-92
2022/03/14 08:02:07;;;;;;;18.40;8.95;;;8.40;99.90;;;;;;4901240;29;20382;-93
2022/03/14 08:04:47;;;;;;;17.80;8.85;;;9.10;99.90;;;;;;4919687;29;20063;-94
2022/03/14 08:07:22;;;;;;;17.50;9.30;;;8.80;99.90;;;;;;4918243;29;20036;-96
2022/03/14 08:10:01;;;;;;;17.48;9.48;;;8.20;99.90;;;;;;4902849;29;20480;-96
2022/03/14 08:12:43;;;;;;;19.33;9.52;;;8.00;99.90;;;;;;4919025;29;20130;-95
2022/03/14 08:15:26;;;;;;;20.98;10.25;;;8.30;99.90;;;;;;4918797;29;20080;-95
2022/03/14 08:17:54;;;;;;;18.60;9.57;;;8.30;99.90;;;;;;4902198;29;20120;-96
2022/03/14 08:20:29;;;;;;;20.60;10.52;;;8.40;99.90;;;;;;4922118;29;20292;-96
2022/03/14 08:23:10;;;;;;;21.13;10.20;;;8.50;99.90;;;;;;4918890;29;20048;-95
2022/03/14 08:25:54;;;;;;;18.40;9.98;;;8.40;99.90;;;;;;4921678;29;20092;-96
2022/03/14 08:28:26;;;;;;;;;;;8.40;99.90;;;;;;4901684;29;20155;-93
2022/03/14 08:31:01;;;;;;;20.10;10.25;;;8.60;99.90;;;;;;4909843;29;20006;-94
2022/03/14 08:33:45;;;;;;;21.08;10.55;;;8.60;99.90;;;;;;5096559;23;20060;-96
2022/03/14 08:36:24;;;;;;;;;;;;;;;;;;;;;
2022/03/14 08:39:20;;;;;;;;;;;8.80;99.90;;;;;;4929249;29;19974;-97
2022/03/14 08:41:55;;;;;;;21.42;11.13;;;9.80;99.90;;;;;;4918690;29;19934;-95
2022/03/14 09:13:46;;;;;;;22.52;12.20;;;8.60;99.90;;;;;;4848223;29;20057;-90
2022/03/14 09:16:12;;;;;;;21.73;11.95;;;8.80;99.90;;;;;;4861660;29;20063;-89
2022/03/14 09:22:01;;;;;;;21.10;11.70;;;8.70;99.90;;;;;;5576414;23;19907;-96
2022/03/14 09:24:58;;;;;;;20.98;11.80;;;8.70;99.90;;;;;;4923675;29;20040;-96
2022/03/14 09:30:04;;;;;;;22.95;11.73;;;8.70;99.90;;;;;;4962461;23;20067;-96
2022/03/14 09:32:30;;;;;;;20.25;11.05;;;8.60;99.90;;;;;;5058573;23;20040;-96
2022/03/14 09:34:59;;;;;;;23.42;11.82;;;8.70;99.90;;;;;;4938848;29;20071;-96
2022/03/14 09:37:27;;;;;;;24.65;12.45;;;8.60;99.90;;;;;;4933422;29;20044;-96
2022/03/14 09:43:01;;;;;;;;;;;;;;;;;;;;;
2022/03/14 09:48:50;;;;;;;33.50;20.65;;;9.00;99.90;;;;;;4930115;29;20504;-97
2022/03/14 09:51:17;;;;;;;26.65;12.85;;;8.50;99.90;;;;;;4905269;29;20052;-96
2022/03/14 09:56:36;;;;;;;;;;;;;;;;;;;;;
2022/03/14 09:59:46;;;;;;;26.85;13.85;;;8.40;99.90;;;;;;4861354;29;20051;-93
2022/03/14 10:02:41;;;;;;;25.17;12.82;;;8.50;99.90;;;;;;4856248;29;20068;-96
2022/03/14 10:29:01;;;;;;;23.60;11.45;;;8.50;99.90;;;;;;5712600;23;20074;-96
2022/03/14 10:31:41;;;;;;;26.23;12.45;;;9.10;99.90;;;;;;5241216;23;20059;-96
2022/03/14 10:34:15;;;;;;;23.08;13.15;;;9.10;99.90;;;;;;5221630;23;20060;-95
2022/03/14 10:48:09;;;;;;;23.88;11.93;;;8.50;99.90;;;;;;5033643;23;20052;-96
2022/03/14 10:53:35;;;;;;;25.52;11.75;;;8.50;99.90;;;;;;5000254;23;20048;-96
2022/03/14 10:56:03;;;;;;;27.83;12.52;;;8.00;99.90;;;;;;4874287;29;20048;-96
2022/03/14 10:58:33;;;;;;;22.50;11.48;;;8.90;99.90;;;;;;4923403;29;20591;-94
2022/03/14 11:01:14;;;;;;;27.52;11.90;;;8.20;99.90;;;;;;4923624;29;20648;-96
2022/03/14 11:03:46;;;;;;;25.80;13.32;;;8.40;99.90;;;;;;4912883;29;20051;-93
2022/03/14 11:06:29;;;;;;;26.33;12.02;;;8.50;99.90;;;;;;5008771;23;20121;-96
2022/03/14 11:08:58;;;;;;;21.35;11.15;;;8.40;99.90;;;;;;5013310;23;20048;-96
2022/03/14 11:22:30;;;;;;;25.05;9.95;;;8.90;99.90;;;;;;4975293;23;20049;-96
2022/03/14 11:34:05;;;;;;;32.47;17.50;;;9.10;99.90;;;;;;4891708;29;20033;-96
2022/03/14 11:43:13;;;;;;;41.90;22.90;;;9.60;99.90;;;;;;4838023;29;20514;-96
2022/03/14 11:45:47;;;;;;;40.60;23.10;;;9.70;99.90;;;;;;5031526;23;20149;-96
2022/03/14 11:48:14;;;;;;;39.63;21.27;;;10.00;99.90;;;;;;4936924;23;20504;-96
2022/03/14 11:50:44;;;;;;;39.08;22.17;;;10.30;99.90;;;;;;4910326;29;20044;-95
2022/03/14 11:53:32;;;;;;;67.18;42.20;;;9.40;99.90;;;;;;4923690;29;20048;-96
2022/03/14 11:56:33;;;;;;;19.92;6.50;;;9.50;99.90;;;;;;4926705;29;20027;-93
2022/03/14 11:59:11;;;;;;;32.05;18.90;;;9.70;99.90;;;;;;4900010;29;20036;-92
2022/03/14 12:01:50;;;;;;;36.67;23.70;;;9.00;99.90;;;;;;4928337;29;20045;-92
2022/03/14 12:04:45;;;;;;;41.50;30.83;;;9.00;99.90;;;;;;4913716;29;20090;-95
2022/03/14 12:07:16;;;;;;;13.85;6.70;;;9.20;99.90;;;;;;4925965;29;20054;-96
2022/03/14 12:09:49;;;;;;;28.80;20.13;;;9.10;99.90;;;;;;4925654;29;20102;-96
2022/03/14 12:15:49;;;;;;;20.80;10.98;;;9.20;99.90;;;;;;4895107;29;20480;-95
2022/03/14 12:18:24;;;;;;;23.10;14.80;;;9.10;99.90;;;;;;4936944;29;20051;-96
2022/03/14 12:21:29;;;;;;;24.83;14.80;;;9.60;99.90;;;;;;4923771;29;20118;-96
2022/03/14 12:26:26;;;;;;;15.85;7.97;;;9.90;99.90;;;;;;4932427;23;20147;-96
2022/03/14 12:28:55;;;;;;;21.55;11.60;;;10.70;99.90;;;;;;4904420;29;20074;-96
2022/03/14 12:31:26;;;;;;;16.90;8.60;;;10.40;99.90;;;;;;4917732;29;20036;-96
2022/03/14 12:34:08;;;;;;;17.55;8.82;;;10.50;99.90;;;;;;4895491;29;20492;-95
2022/03/14 12:40:30;;;;;;;;;;;;;;;;;;;;;
2022/03/14 12:43:25;;;;;;;18.83;9.93;;;11.40;99.90;;;;;;4850764;29;20091;-96
2022/03/14 12:45:54;;;;;;;20.63;11.52;;;10.00;99.90;;;;;;4904166;29;20044;-96
2022/03/14 12:48:25;;;;;;;19.88;11.88;;;10.40;99.90;;;;;;4902653;29;20136;-96
2022/03/14 12:51:46;;;;;;;24.48;11.88;;;10.40;99.90;;;;;;4914016;29;20046;-96
2022/03/14 12:54:32;;;;;;;19.67;11.70;;;10.00;99.90;;;;;;4911037;29;20095;-96
2022/03/14 12:57:04;;;;;;;21.15;11.60;;;10.00;99.90;;;;;;4909929;23;20049;-95
2022/03/14 12:59:48;;;;;;;17.93;10.10;;;10.30;99.90;;;;;;4903974;29;20058;-95
2022/03/14 13:02:36;;;;;;;20.98;12.25;;;10.00;99.90;;;;;;4935548;29;20048;-96
2022/03/14 13:05:05;;;;;;;23.48;12.63;;;10.40;99.90;;;;;;4930750;29;20056;-96
2022/03/14 13:07:36;;;;;;;23.27;12.23;;;10.50;99.90;;;;;;4920278;29;20075;-95
2022/03/14 13:10:10;;;;;;;17.77;10.48;;;10.70;99.90;;;;;;4912251;29;20034;-95
2022/03/14 13:12:36;;;;;;;23.85;14.55;;;10.80;99.90;;;;;;4916214;29;20147;-95
2022/03/14 13:15:11;;;;;;;22.88;12.55;;;11.10;99.90;;;;;;4918844;29;20048;-96
2022/03/14 13:17:55;;;;;;;20.10;11.48;;;11.20;99.90;;;;;;4902671;29;20104;-95
2022/03/14 13:20:26;;;;;;;20.50;10.88;;;11.20;99.90;;;;;;4920130;29;20599;-96
2022/03/14 13:22:52;;;;;;;22.17;11.90;;;11.20;99.90;;;;;;4903378;29;20044;-95
2022/03/14 13:25:36;;;;;;;23.20;13.65;;;11.30;99.90;;;;;;4920151;29;20051;-95
2022/03/14 13:28:04;;;;;;;22.80;12.05;;;11.40;99.90;;;;;;4904649;29;20412;-96
2022/03/14 13:30:42;;;;;;;22.50;12.13;;;11.70;99.90;;;;;;4926299;29;20108;-93
2022/03/14 13:33:26;;;;;;;18.70;10.57;;;12.40;99.90;;;;;;4920025;29;20051;-95
2022/03/14 13:36:12;;;;;;;21.25;10.25;;;11.50;99.90;;;;;;4899883;29;20079;-91
2022/03/14 13:38:56;;;;;;;21.52;10.30;;;12.20;99.90;;;;;;4900772;29;20139;-90
2022/03/14 13:41:26;;;;;;;18.80;11.18;;;11.20;99.90;;;;;;4919118;29;20079;-94
2022/03/14 13:44:00;;;;;;;19.13;10.38;;;11.30;99.90;;;;;;4902010;29;20044;-92
2022/03/14 13:46:39;;;;;;;19.30;10.32;;;11.20;99.90;;;;;;4901182;29;20040;-94
2022/03/14 13:49:16;;;;;;;19.60;9.52;;;11.60;99.90;;;;;;4902585;29;20044;-89
2022/03/14 13:52:24;;;;;;;22.30;10.02;;;12.20;99.90;;;;;;4899913;29;20079;-92
2022/03/14 13:54:59;;;;;;;21.13;9.82;;;11.80;99.90;;;;;;4900230;29;20052;-88
2022/03/14 13:57:28;;;;;;;20.60;9.68;;;11.70;99.90;;;;;;4915537;29;20055;-90
2022/03/14 14:00:12;;;;;;;19.95;10.05;;;13.10;99.90;;;;;;4899013;29;20052;-91
2022/03/14 14:02:38;;;;;;;;;;;11.90;99.90;;;;;;4899892;29;20060;-93
2022/03/14 14:05:15;;;;;;;20.23;9.82;;;11.80;99.90;;;;;;4899564;29;19923;-94
2022/03/14 14:07:57;;;;;;;18.73;9.05;;;12.10;99.90;;;;;;4906665;29;20504;-92
2022/03/14 14:10:38;;;;;;;18.80;9.50;;;12.00;99.90;;;;;;4900166;29;20055;-95
2022/03/14 14:13:57;;;;;;;17.02;9.73;;;12.10;99.90;;;;;;4905994;29;20396;-96
2022/03/14 14:16:38;;;;;;;18.33;8.02;;;12.30;99.90;;;;;;4887017;29;20384;-94
2022/03/14 14:19:22;;;;;;;18.13;8.75;;;12.50;99.90;;;;;;4890842;29;20069;-96
2022/03/14 14:21:57;;;;;;;18.48;7.78;;;13.40;99.90;;;;;;4886466;29;20120;-95
2022/03/14 14:24:42;;;;;;;15.70;8.00;;;13.40;99.90;;;;;;4884759;29;20056;-96
2022/03/14 14:27:26;;;;;;;17.17;6.72;;;12.50;99.90;;;;;;4904866;29;20040;-95
2022/03/14 14:29:59;;;;;;;16.25;7.57;;;12.70;99.90;;;;;;4883572;29;20450;-94
2022/03/14 14:32:29;;;;;;;14.73;6.00;;;12.90;99.90;;;;;;4899147;29;20044;-94
2022/03/14 14:34:55;;;;;;;17.38;6.00;;;13.10;99.90;;;;;;4900671;29;20055;-94
2022/03/14 14:37:30;;;;;;;17.10;6.78;;;13.80;99.90;;;;;;4900854;29;20041;-94
2022/03/14 14:40:06;;;;;;;17.63;7.97;;;12.90;99.90;;;;;;4883594;29;20062;-93
2022/03/14 14:42:31;;;;;;;15.13;7.40;;;13.20;99.90;;;;;;4901354;29;20044;-93
2022/03/14 14:45:03;;;;;;;14.70;6.97;;;12.70;99.90;;;;;;4900578;29;20385;-94
2022/03/14 14:47:29;;;;;;;18.40;7.18;;;13.10;99.90;;;;;;4900611;29;20049;-92
2022/03/14 14:50:00;;;;;;;16.33;7.00;;;12.60;99.90;;;;;;4909143;29;20080;-93
2022/03/14 14:52:32;;;;;;;17.10;7.85;;;12.70;99.90;;;;;;4917234;29;20053;-93
2022/03/14 14:55:09;;;;;;;15.90;7.78;;;12.40;99.90;;;;;;4921180;29;20044;-96
2022/03/14 14:57:35;;;;;;;17.70;7.50;;;12.20;99.90;;;;;;4879334;29;1078791;-96
2022/03/14 15:00:03;;;;;;;16.17;7.88;;;11.60;99.90;;;;;;4941653;29;20031;-95
2022/03/14 15:02:29;;;;;;;16.25;7.70;;;13.00;99.90;;;;;;4943600;29;20040;-96
2022/03/14 15:05:01;;;;;;;18.60;7.90;;;13.10;99.90;;;;;;4927635;29;20116;-95
2022/03/14 15:08:11;;;;;;;20.13;8.20;;;12.50;99.90;;;;;;4914913;29;20053;-96
2022/03/14 15:10:46;;;;;;;16.55;7.75;;;12.50;99.90;;;;;;4925590;29;20105;-96
2022/03/14 15:13:21;;;;;;;16.95;8.27;;;12.60;99.90;;;;;;4905838;29;20050;-96